Time;durP1;ratioP1;P1;durP2;ratioP2;P2;SDS_P1;SDS_P2;PMS_P1;PMS_P2;Temp;Humidity;BMP_temperature;BMP_pressure;BME280_temperature;BME280_humidity;BME280_pressure;Samples;Min_cycle;Max_cycle;Signal;HPM_P1;HPM_P2
2023/02/02 00:01:56;;;;;;;22.27;3.40;;;5.20;99.90;;;;;;5022979;28;20123;-74
2023/02/02 00:04:29;;;;;;;19.15;4.25;;;5.20;99.90;;;;;;5028138;28;20049;-74
2023/02/02 00:06:58;;;;;;;30.20;4.43;;;5.10;99.90;;;;;;5002300;28;20061;-74
2023/02/02 00:09:28;;;;;;;27.02;3.55;;;5.40;99.90;;;;;;5022695;28;20146;-75
2023/02/02 00:11:54;;;;;;;20.92;3.80;;;5.20;99.90;;;;;;5023016;28;20068;-74
2023/02/02 00:14:19;;;;;;;24.95;4.63;;;5.10;99.90;;;;;;5018120;28;20049;-73
2023/02/02 00:16:50;;;;;;;29.42;4.07;;;5.10;99.90;;;;;;5004588;28;20390;-74
2023/02/02 00:19:25;;;;;;;19.30;3.17;;;5.10;99.90;;;;;;4996107;28;20374;-76
2023/02/02 00:21:51;;;;;;;19.60;3.17;;;5.10;99.90;;;;;;5031692;28;20049;-74
2023/02/02 00:24:17;;;;;;;24.63;4.00;;;5.10;99.90;;;;;;4996788;28;20045;-75
2023/02/02 00:26:43;;;;;;;21.27;3.58;;;5.10;99.90;;;;;;5036983;28;20137;-73
2023/02/02 00:29:15;;;;;;;18.92;3.10;;;5.10;99.90;;;;;;5013501;28;20612;-74
2023/02/02 00:31:42;;;;;;;21.33;3.33;;;5.20;99.90;;;;;;5015829;28;20041;-74
2023/02/02 00:34:12;;;;;;;19.10;3.38;;;5.10;99.90;;;;;;5015566;28;20061;-76
2023/02/02 00:36:38;;;;;;;17.90;3.65;;;5.20;99.90;;;;;;5015494;28;20415;-77
2023/02/02 00:39:03;;;;;;;25.73;3.55;;;5.20;99.90;;;;;;5035916;28;20072;-75
2023/02/02 00:41:29;;;;;;;19.13;2.85;;;5.10;99.90;;;;;;5023333;28;20057;-74
2023/02/02 00:46:41;;;;;;;16.90;3.17;;;5.20;99.90;;;;;;5025222;28;20770;-75
2023/02/02 00:49:07;;;;;;;19.40;3.05;;;5.10;99.90;;;;;;5030559;28;20110;-75
2023/02/02 00:51:34;;;;;;;23.67;4.25;;;5.10;99.90;;;;;;5047846;28;20125;-74
2023/02/02 00:54:01;;;;;;;22.25;3.10;;;5.10;99.90;;;;;;5017286;28;20508;-74
2023/02/02 00:56:27;;;;;;;24.00;3.03;;;5.10;99.90;;;;;;5027247;28;20055;-75
2023/02/02 00:58:52;;;;;;;23.35;3.30;;;5.10;99.90;;;;;;5017157;28;20136;-74
2023/02/02 01:01:20;;;;;;;26.45;3.25;;;5.10;99.90;;;;;;4999249;28;20045;-74
2023/02/02 01:03:46;;;;;;;22.70;3.35;;;5.10;99.90;;;;;;5039869;28;20061;-74
2023/02/02 01:06:12;;;;;;;18.95;2.72;;;5.00;99.90;;;;;;5011275;28;20042;-73
2023/02/02 01:08:39;;;;;;;22.27;3.58;;;5.00;99.90;;;;;;5001981;28;20045;-75
2023/02/02 01:11:05;;;;;;;18.80;3.22;;;4.90;99.90;;;;;;4995683;28;20731;-75
2023/02/02 01:13:31;;;;;;;23.73;3.28;;;4.90;99.90;;;;;;5032044;28;20041;-73
2023/02/02 01:15:58;;;;;;;16.50;3.58;;;4.90;99.90;;;;;;5010839;28;20045;-74
2023/02/02 01:18:24;;;;;;;29.63;3.95;;;4.90;99.90;;;;;;5008179;28;20042;-75
2023/02/02 01:21:16;;;;;;;15.25;3.20;;;4.90;99.90;;;;;;5017538;28;20044;-74
2023/02/02 01:23:42;;;;;;;19.25;3.25;;;5.00;99.90;;;;;;5014193;28;20046;-73
2023/02/02 01:26:09;;;;;;;16.42;2.97;;;5.00;99.90;;;;;;4988860;28;20048;-73
2023/02/02 01:28:34;;;;;;;21.00;3.40;;;5.00;99.90;;;;;;5017407;28;20049;-74
2023/02/02 01:31:08;;;;;;;25.25;3.67;;;5.10;99.90;;;;;;5032790;28;20045;-74
2023/02/02 01:33:34;;;;;;;12.95;2.58;;;5.10;99.90;;;;;;5023616;28;20499;-73
2023/02/02 01:36:05;;;;;;;15.98;3.10;;;5.10;99.90;;;;;;5031238;28;20060;-74
2023/02/02 01:38:31;;;;;;;21.27;3.78;;;5.10;99.90;;;;;;5007503;28;20351;-73
2023/02/02 01:40:57;;;;;;;18.50;2.65;;;5.10;99.90;;;;;;5029481;28;20037;-73
2023/02/02 01:43:25;;;;;;;18.20;2.60;;;5.10;99.90;;;;;;5026807;28;20048;-74
2023/02/02 01:45:52;;;;;;;24.95;2.90;;;5.00;99.90;;;;;;5043038;28;20769;-74
2023/02/02 01:48:19;;;;;;;21.90;3.38;;;5.00;99.90;;;;;;5025275;28;20072;-74
2023/02/02 01:50:45;;;;;;;23.23;5.18;;;5.00;99.90;;;;;;5016418;28;20050;-74
2023/02/02 01:53:10;;;;;;;25.45;2.72;;;5.00;99.90;;;;;;4982607;28;20136;-74
2023/02/02 01:55:37;;;;;;;22.88;3.85;;;5.00;99.90;;;;;;5017119;28;20033;-73
2023/02/02 01:58:10;;;;;;;25.85;3.10;;;5.00;99.90;;;;;;4999662;28;20382;-74
2023/02/02 02:00:36;;;;;;;28.50;3.28;;;5.00;99.90;;;;;;5010891;28;20045;-75
2023/02/02 02:03:08;;;;;;;24.15;3.42;;;4.90;99.90;;;;;;5022340;28;20264;-73
2023/02/02 02:05:37;;;;;;;20.05;3.60;;;4.90;99.90;;;;;;5024586;28;20048;-74
2023/02/02 02:08:11;;;;;;;17.13;2.83;;;4.80;99.90;;;;;;5013169;28;20085;-74
2023/02/02 02:10:36;;;;;;;18.80;2.63;;;4.90;99.90;;;;;;5013618;28;20064;-74
2023/02/02 02:13:03;;;;;;;20.67;4.03;;;4.80;99.90;;;;;;5010285;28;20054;-75
2023/02/02 02:18:26;;;;;;;17.50;2.80;;;4.80;99.90;;;;;;5041227;28;20046;-75
2023/02/02 02:27:01;;;;;;;22.13;3.58;;;4.80;99.90;;;;;;5025676;28;20486;-74
2023/02/02 02:30:00;;;;;;;15.73;3.53;;;4.80;99.90;;;;;;5003390;28;20049;-73
2023/02/02 02:33:07;;;;;;;13.25;2.78;;;4.90;99.90;;;;;;5015244;28;20064;-74
2023/02/02 02:35:53;;;;;;;22.63;3.53;;;4.90;99.90;;;;;;5004655;28;20057;-74
2023/02/02 02:38:28;;;;;;;25.00;4.28;;;4.90;99.90;;;;;;4987596;28;20718;-74
2023/02/02 02:40:55;;;;;;;16.25;3.05;;;4.90;99.90;;;;;;5008707;28;20069;-74
2023/02/02 02:43:32;;;;;;;12.73;2.87;;;4.90;99.90;;;;;;5014073;28;20060;-73
2023/02/02 02:45:57;;;;;;;22.35;3.42;;;4.90;99.90;;;;;;5023091;28;20321;-74
2023/02/02 02:48:43;;;;;;;27.65;3.95;;;4.80;99.90;;;;;;5023486;28;20702;-75
2023/02/02 02:51:48;;;;;;;18.85;3.45;;;4.80;99.90;;;;;;5025933;28;20423;-73
2023/02/02 02:54:25;;;;;;;24.30;3.75;;;4.80;99.90;;;;;;5012350;28;20346;-74
2023/02/02 02:57:12;;;;;;;19.08;3.10;;;4.90;99.90;;;;;;5021412;28;20053;-75
2023/02/02 03:00:11;;;;;;;22.02;3.50;;;4.90;99.90;;;;;;5037071;28;20367;-75
2023/02/02 03:03:05;;;;;;;18.98;3.38;;;4.90;99.90;;;;;;5033965;28;20038;-75
2023/02/02 03:05:39;;;;;;;29.08;2.97;;;4.90;99.90;;;;;;5027075;28;20339;-75
2023/02/02 03:08:13;;;;;;;28.27;3.33;;;4.90;99.90;;;;;;5038060;28;20052;-73
2023/02/02 03:10:41;;;;;;;34.42;3.85;;;4.90;99.90;;;;;;5016090;28;20045;-73
2023/02/02 03:13:08;;;;;;;24.05;4.13;;;4.80;99.90;;;;;;5006229;28;20096;-76
2023/02/02 03:15:34;;;;;;;24.17;4.80;;;4.80;99.90;;;;;;5018968;28;20128;-74
2023/02/02 03:17:59;;;;;;;17.63;2.65;;;4.80;99.90;;;;;;5030043;28;20490;-76
2023/02/02 03:20:25;;;;;;;23.48;3.35;;;4.80;99.90;;;;;;5011257;28;20824;-74
2023/02/02 03:22:51;;;;;;;23.40;3.95;;;4.80;99.90;;;;;;5010771;28;20557;-73
2023/02/02 03:25:17;;;;;;;20.88;3.53;;;4.80;99.90;;;;;;5012105;28;20407;-73
2023/02/02 03:27:43;;;;;;;21.17;3.30;;;4.80;99.90;;;;;;5037870;28;20041;-74
2023/02/02 03:30:10;;;;;;;18.55;3.35;;;4.80;99.90;;;;;;5013125;28;20061;-74
2023/02/02 03:32:36;;;;;;;21.30;3.35;;;4.80;99.90;;;;;;5013484;28;20049;-73
2023/02/02 03:35:02;;;;;;;20.52;3.10;;;4.80;99.90;;;;;;5025058;28;20046;-74
2023/02/02 03:37:28;;;;;;;26.38;3.70;;;4.70;99.90;;;;;;5027073;28;20048;-74
2023/02/02 03:39:54;;;;;;;21.45;3.45;;;4.70;99.90;;;;;;5029498;28;20346;-76
2023/02/02 03:42:19;;;;;;;23.13;3.10;;;4.70;99.90;;;;;;5026721;28;20073;-74
2023/02/02 03:44:45;;;;;;;23.10;3.42;;;4.60;99.90;;;;;;4990997;28;20100;-76
2023/02/02 03:47:11;;;;;;;23.10;3.20;;;4.60;99.90;;;;;;5003933;28;20045;-74
2023/02/02 03:49:36;;;;;;;23.30;3.35;;;4.60;99.90;;;;;;5007870;28;20573;-75
2023/02/02 03:52:03;;;;;;;19.38;3.67;;;4.70;99.90;;;;;;5014194;28;20060;-75
2023/02/02 03:54:29;;;;;;;21.77;4.28;;;4.70;99.90;;;;;;4994301;28;20054;-74
2023/02/02 03:56:55;;;;;;;20.75;3.25;;;4.80;99.90;;;;;;5013499;28;20126;-74
2023/02/02 03:59:21;;;;;;;20.85;3.30;;;4.80;99.90;;;;;;5025858;28;20056;-74
2023/02/02 04:01:46;;;;;;;20.38;3.03;;;4.90;99.90;;;;;;4996693;28;20049;-74
2023/02/02 04:04:12;;;;;;;13.60;3.10;;;4.80;99.90;;;;;;5013326;28;20053;-74
2023/02/02 04:06:38;;;;;;;19.13;3.17;;;4.80;99.90;;;;;;5007097;28;20060;-74
2023/02/02 04:09:04;;;;;;;21.73;3.45;;;4.70;99.90;;;;;;5022937;28;20053;-75
2023/02/02 04:11:29;;;;;;;24.20;4.00;;;4.70;99.90;;;;;;5014034;28;20058;-74
2023/02/02 04:13:55;;;;;;;20.80;3.38;;;4.70;99.90;;;;;;5014003;28;20055;-74
2023/02/02 04:16:21;;;;;;;26.48;4.72;;;4.80;99.90;;;;;;5009507;28;20050;-74
2023/02/02 04:18:46;;;;;;;20.52;3.35;;;4.70;99.90;;;;;;5006012;28;20142;-74
2023/02/02 04:21:12;;;;;;;24.70;3.38;;;4.80;99.90;;;;;;5022433;28;20120;-74
2023/02/02 04:23:38;;;;;;;27.15;3.53;;;4.70;99.90;;;;;;5011362;28;20046;-74
2023/02/02 04:26:04;;;;;;;28.00;3.42;;;4.70;99.90;;;;;;5030753;28;20440;-74
2023/02/02 04:28:30;;;;;;;33.13;4.63;;;4.60;99.90;;;;;;5012223;28;20046;-75
2023/02/02 04:30:56;;;;;;;30.90;4.43;;;4.70;99.90;;;;;;5014878;28;20084;-74
2023/02/02 04:33:23;;;;;;;27.58;3.70;;;4.70;99.90;;;;;;5030164;28;20053;-74
2023/02/02 04:35:49;;;;;;;20.83;3.42;;;4.60;99.90;;;;;;5024662;28;20060;-74
2023/02/02 04:38:14;;;;;;;20.90;3.35;;;4.60;99.90;;;;;;5009081;28;20037;-75
2023/02/02 04:40:41;;;;;;;24.85;3.67;;;4.70;99.90;;;;;;5003956;28;20053;-75
2023/02/02 04:43:07;;;;;;;14.57;3.08;;;4.70;99.90;;;;;;5030649;28;20042;-75
2023/02/02 04:45:33;;;;;;;26.05;3.65;;;4.60;99.90;;;;;;5009179;28;20042;-76
2023/02/02 04:47:59;;;;;;;20.83;3.15;;;4.70;99.90;;;;;;5024688;28;20096;-76
2023/02/02 04:50:25;;;;;;;26.73;3.95;;;4.70;99.90;;;;;;5006952;28;20045;-77
2023/02/02 04:52:50;;;;;;;24.50;3.75;;;4.70;99.90;;;;;;4996836;28;20190;-76
2023/02/02 04:55:16;;;;;;;31.65;4.55;;;4.70;99.90;;;;;;5013044;28;20041;-77
2023/02/02 04:57:42;;;;;;;21.25;3.72;;;4.70;99.90;;;;;;5016945;28;20647;-77
2023/02/02 05:00:10;;;;;;;24.27;3.75;;;4.70;99.90;;;;;;5034160;28;20107;-77
2023/02/02 05:02:36;;;;;;;25.17;3.42;;;4.70;99.90;;;;;;5007880;28;20509;-77
2023/02/02 05:05:02;;;;;;;24.80;2.92;;;4.70;99.90;;;;;;5036058;28;20042;-75
2023/02/02 05:07:29;;;;;;;23.95;4.20;;;4.80;99.90;;;;;;5031606;28;20344;-76
2023/02/02 05:09:54;;;;;;;19.50;3.33;;;4.80;99.90;;;;;;5012018;28;20540;-77
2023/02/02 05:12:20;;;;;;;25.25;4.30;;;4.70;99.90;;;;;;5025536;28;20077;-77
2023/02/02 05:14:46;;;;;;;19.25;3.25;;;4.80;99.90;;;;;;5027019;28;20057;-75
2023/02/02 05:17:11;;;;;;;19.20;2.65;;;4.80;99.90;;;;;;5015458;28;20393;-77
2023/02/02 05:19:37;;;;;;;24.42;4.00;;;4.80;99.90;;;;;;5025086;28;20041;-77
2023/02/02 05:22:03;;;;;;;19.52;2.92;;;4.80;99.90;;;;;;4975845;28;20083;-77
2023/02/02 05:24:29;;;;;;;23.98;3.45;;;4.80;99.90;;;;;;5010602;28;20083;-75
2023/02/02 05:26:59;;;;;;;23.85;3.75;;;4.80;99.90;;;;;;5024498;28;20042;-77
2023/02/02 05:29:27;;;;;;;22.40;3.30;;;4.80;99.90;;;;;;5046081;28;20104;-75
2023/02/02 05:31:53;;;;;;;20.83;3.35;;;4.80;99.90;;;;;;5009088;28;20041;-75
2023/02/02 05:34:19;;;;;;;24.63;4.47;;;4.70;99.90;;;;;;5008234;28;20060;-74
2023/02/02 05:36:45;;;;;;;21.35;3.65;;;4.70;99.90;;;;;;4989769;28;20572;-78
2023/02/02 05:39:10;;;;;;;18.02;3.47;;;4.80;99.90;;;;;;5034799;28;20041;-77
2023/02/02 05:41:36;;;;;;;34.13;4.07;;;4.90;99.90;;;;;;5044955;28;20073;-76
2023/02/02 05:44:02;;;;;;;23.60;4.13;;;4.90;99.90;;;;;;5029876;28;20355;-77
2023/02/02 05:46:28;;;;;;;28.13;3.63;;;4.90;99.90;;;;;;5012633;28;20080;-75
2023/02/02 05:48:54;;;;;;;24.20;3.47;;;4.80;99.90;;;;;;5015952;28;20057;-75
2023/02/02 05:51:28;;;;;;;26.33;3.88;;;4.80;99.90;;;;;;5005577;28;20046;-75
2023/02/02 05:53:53;;;;;;;26.27;4.30;;;4.80;99.90;;;;;;5031675;28;20091;-73
2023/02/02 05:56:19;;;;;;;22.83;3.30;;;4.90;99.90;;;;;;5029630;28;20049;-75
2023/02/02 05:58:48;;;;;;;18.63;3.65;;;4.80;99.90;;;;;;5012524;28;20056;-75
2023/02/02 06:01:15;;;;;;;20.15;3.95;;;4.70;99.90;;;;;;5011746;28;20045;-74
2023/02/02 06:03:41;;;;;;;29.25;4.55;;;4.70;99.90;;;;;;4998809;28;20041;-75
2023/02/02 06:06:07;;;;;;;34.65;4.13;;;4.70;99.90;;;;;;4978415;28;20072;-75
2023/02/02 06:08:32;;;;;;;27.42;5.95;;;4.80;99.90;;;;;;5013808;28;20475;-74
2023/02/02 06:10:58;;;;;;;26.15;4.72;;;4.70;99.90;;;;;;5004473;28;20057;-73
2023/02/02 06:13:24;;;;;;;31.05;4.60;;;4.80;99.90;;;;;;5026233;28;20454;-74
2023/02/02 06:15:49;;;;;;;28.85;4.55;;;4.80;99.90;;;;;;5000753;28;20413;-76
2023/02/02 06:18:15;;;;;;;24.90;4.22;;;4.80;99.90;;;;;;5006777;28;20048;-75
2023/02/02 06:20:41;;;;;;;24.63;4.18;;;4.80;99.90;;;;;;5025517;28;20456;-75
2023/02/02 06:23:07;;;;;;;20.40;3.55;;;4.80;99.90;;;;;;5021600;28;20042;-77
2023/02/02 06:25:34;;;;;;;24.38;4.40;;;4.80;99.90;;;;;;5033082;28;20049;-75
2023/02/02 06:28:00;;;;;;;27.77;4.43;;;4.70;99.90;;;;;;5012822;28;20049;-75
2023/02/02 06:30:26;;;;;;;28.35;3.63;;;4.70;99.90;;;;;;4979866;28;20046;-76
2023/02/02 06:32:52;;;;;;;26.70;4.20;;;4.70;99.90;;;;;;5021290;28;20045;-76
2023/02/02 06:35:18;;;;;;;28.13;4.55;;;4.80;99.90;;;;;;5043534;28;20454;-75
2023/02/02 06:37:44;;;;;;;19.05;3.92;;;4.80;99.90;;;;;;5021113;28;20042;-75
2023/02/02 06:40:10;;;;;;;27.25;4.45;;;4.70;99.90;;;;;;5014051;28;20076;-75
2023/02/02 06:42:36;;;;;;;28.30;3.95;;;4.70;99.90;;;;;;5012216;28;20462;-75
2023/02/02 06:45:03;;;;;;;22.20;4.90;;;4.60;99.90;;;;;;5022406;28;20049;-75
2023/02/02 06:47:30;;;;;;;20.05;4.60;;;4.60;99.90;;;;;;5031840;28;20065;-75
2023/02/02 06:49:56;;;;;;;22.30;3.97;;;4.60;99.90;;;;;;5015190;28;20505;-77
2023/02/02 06:52:22;;;;;;;31.85;3.75;;;4.60;99.90;;;;;;5009455;28;20049;-76
2023/02/02 06:54:48;;;;;;;27.92;4.53;;;4.70;99.90;;;;;;5010164;28;20057;-75
2023/02/02 06:57:13;;;;;;;29.92;3.53;;;4.60;99.90;;;;;;5025181;28;20041;-76
2023/02/02 06:59:40;;;;;;;25.23;4.30;;;4.70;99.90;;;;;;5038754;28;20099;-76
2023/02/02 07:02:09;;;;;;;30.73;4.50;;;4.60;99.90;;;;;;5030287;28;20127;-75
2023/02/02 07:04:35;;;;;;;26.42;3.72;;;4.80;99.90;;;;;;5002964;28;20054;-75
2023/02/02 07:07:01;;;;;;;20.83;3.58;;;4.70;99.90;;;;;;5016220;28;20498;-77
2023/02/02 07:09:27;;;;;;;21.98;3.20;;;4.70;99.90;;;;;;5032152;28;20045;-77
2023/02/02 07:11:52;;;;;;;21.13;3.40;;;4.60;99.90;;;;;;5015721;28;20053;-76
2023/02/02 07:14:18;;;;;;;22.10;3.47;;;4.60;99.90;;;;;;5022851;28;20053;-76
2023/02/02 07:16:44;;;;;;;27.45;5.05;;;4.70;99.90;;;;;;4999154;28;20136;-78
2023/02/02 07:19:09;;;;;;;24.90;3.97;;;4.60;99.90;;;;;;5019918;28;20397;-74
2023/02/02 07:21:35;;;;;;;19.13;3.75;;;4.70;99.90;;;;;;5019733;28;20068;-75
2023/02/02 07:24:02;;;;;;;35.60;4.60;;;4.60;99.90;;;;;;5011529;28;20536;-78
2023/02/02 07:26:28;;;;;;;26.52;3.97;;;4.60;99.90;;;;;;5023063;28;20050;-76
2023/02/02 07:28:54;;;;;;;22.02;3.75;;;4.60;99.90;;;;;;5031178;28;20057;-74
2023/02/02 07:31:24;;;;;;;25.45;3.75;;;4.60;99.90;;;;;;5045487;28;20425;-76
2023/02/02 07:33:50;;;;;;;25.98;3.83;;;4.60;99.90;;;;;;5009090;28;20053;-76
2023/02/02 07:36:18;;;;;;;35.95;3.85;;;4.60;99.90;;;;;;5012696;28;20355;-76
2023/02/02 07:38:44;;;;;;;24.55;4.32;;;4.60;99.90;;;;;;5018837;28;20466;-76
2023/02/02 07:41:10;;;;;;;29.08;4.38;;;4.70;99.90;;;;;;5026273;28;20053;-76
2023/02/02 07:43:36;;;;;;;32.60;5.80;;;4.70;99.90;;;;;;5004190;28;20474;-75
2023/02/02 07:46:03;;;;;;;27.80;4.70;;;4.80;99.90;;;;;;5007635;28;20056;-76
2023/02/02 07:48:29;;;;;;;21.52;4.20;;;4.80;99.90;;;;;;5025451;28;20049;-75
2023/02/02 07:51:15;;;;;;;32.53;4.75;;;4.80;99.90;;;;;;4998103;28;20056;-75
2023/02/02 07:53:44;;;;;;;19.92;3.65;;;4.90;99.90;;;;;;5012390;28;20453;-76
2023/02/02 07:56:18;;;;;;;25.98;4.65;;;4.90;99.90;;;;;;5023021;28;20037;-74
2023/02/02 07:58:44;;;;;;;26.70;4.00;;;4.90;99.90;;;;;;5019571;28;20046;-74
2023/02/02 08:01:11;;;;;;;28.15;4.30;;;5.00;99.90;;;;;;5026687;28;20125;-75
2023/02/02 08:03:37;;;;;;;25.70;3.88;;;5.00;99.90;;;;;;5003952;28;20378;-75
2023/02/02 08:06:14;;;;;;;35.08;5.80;;;5.00;99.90;;;;;;5027359;28;20046;-75
2023/02/02 08:08:40;;;;;;;24.30;4.22;;;5.00;99.90;;;;;;5017903;28;20072;-74
2023/02/02 08:11:10;;;;;;;29.15;4.65;;;5.10;99.90;;;;;;5018986;28;20045;-74
2023/02/02 08:13:36;;;;;;;33.13;4.93;;;5.10;99.90;;;;;;5023359;28;20054;-76
2023/02/02 08:16:02;;;;;;;27.92;4.35;;;5.20;99.90;;;;;;5026196;28;20052;-76
2023/02/02 08:18:27;;;;;;;20.40;3.75;;;5.20;99.90;;;;;;5013616;28;20083;-75
2023/02/02 08:20:54;;;;;;;25.60;3.63;;;5.20;99.90;;;;;;5003487;28;20037;-75
2023/02/02 08:23:22;;;;;;;23.55;3.58;;;5.30;99.90;;;;;;5024318;28;20447;-75
2023/02/02 08:25:49;;;;;;;26.45;3.97;;;5.30;99.90;;;;;;5028685;28;20156;-74
2023/02/02 08:28:16;;;;;;;29.45;4.75;;;5.30;99.90;;;;;;5001287;28;20057;-75
2023/02/02 08:30:41;;;;;;;18.85;4.03;;;5.30;99.90;;;;;;5021608;28;20053;-75
2023/02/02 08:33:07;;;;;;;34.42;4.93;;;5.30;99.90;;;;;;5020755;28;20064;-74
2023/02/02 08:35:33;;;;;;;24.17;4.35;;;5.40;99.90;;;;;;5004967;28;20052;-75
2023/02/02 08:38:01;;;;;;;29.75;3.95;;;5.40;99.90;;;;;;5014276;28;20045;-74
2023/02/02 08:40:28;;;;;;;32.35;4.50;;;5.50;99.90;;;;;;5007480;28;20474;-72
2023/02/02 08:42:54;;;;;;;25.50;3.85;;;5.60;99.90;;;;;;5013036;28;20050;-73
2023/02/02 08:45:20;;;;;;;27.20;3.83;;;5.70;99.90;;;;;;5016728;28;20053;-74
2023/02/02 08:47:45;;;;;;;28.80;3.90;;;5.90;99.90;;;;;;5008550;28;20067;-75
2023/02/02 08:50:11;;;;;;;24.05;4.28;;;6.00;99.90;;;;;;5013276;28;20142;-74
2023/02/02 08:52:37;;;;;;;27.17;4.75;;;6.00;99.90;;;;;;5024682;28;20087;-73
2023/02/02 08:55:03;;;;;;;28.85;3.83;;;6.10;99.90;;;;;;5004934;28;20057;-74
2023/02/02 08:57:31;;;;;;;28.50;4.05;;;5.80;99.90;;;;;;5013565;28;20046;-74
2023/02/02 08:59:57;;;;;;;23.17;3.85;;;5.70;99.90;;;;;;4986132;28;20119;-75
2023/02/02 09:02:23;;;;;;;25.48;4.80;;;5.70;99.90;;;;;;5024772;28;20038;-74
2023/02/02 09:04:49;;;;;;;29.15;5.07;;;5.70;99.90;;;;;;5002930;28;20049;-75
2023/02/02 09:07:14;;;;;;;24.63;4.68;;;5.60;99.90;;;;;;5022878;28;20045;-75
2023/02/02 09:09:40;;;;;;;30.98;4.55;;;5.60;99.90;;;;;;5025625;28;20478;-75
2023/02/02 09:12:06;;;;;;;32.05;4.10;;;5.60;99.90;;;;;;5011302;28;20488;-75
2023/02/02 09:14:32;;;;;;;30.67;4.38;;;5.60;99.90;;;;;;4997779;28;20054;-74
2023/02/02 09:16:57;;;;;;;28.30;3.83;;;5.60;99.90;;;;;;5041594;28;20100;-75
2023/02/02 09:19:23;;;;;;;34.83;5.32;;;5.70;99.90;;;;;;5025727;28;20128;-74
2023/02/02 09:21:49;;;;;;;20.73;4.32;;;5.70;99.90;;;;;;5034687;28;20124;-75
2023/02/02 09:24:16;;;;;;;29.45;4.18;;;5.70;99.90;;;;;;5001212;28;20051;-75
2023/02/02 09:26:43;;;;;;;21.40;3.70;;;5.80;99.90;;;;;;5018900;28;20050;-76
2023/02/02 09:29:14;;;;;;;23.75;3.75;;;5.80;99.90;;;;;;5018387;28;20044;-73
2023/02/02 09:31:40;;;;;;;28.13;4.40;;;5.80;99.90;;;;;;5010827;28;20404;-75
2023/02/02 09:34:10;;;;;;;28.33;5.00;;;5.90;99.90;;;;;;5001260;28;20111;-75
2023/02/02 09:36:36;;;;;;;22.55;4.38;;;5.90;99.90;;;;;;5028607;28;20046;-74
2023/02/02 09:39:02;;;;;;;34.25;3.70;;;6.00;99.90;;;;;;5021748;28;20037;-75
2023/02/02 09:41:37;;;;;;;39.97;5.07;;;6.00;99.90;;;;;;5030384;28;20107;-75
2023/02/02 09:44:36;;;;;;;29.08;3.83;;;6.00;99.90;;;;;;5033389;28;20045;-75
2023/02/02 09:47:19;;;;;;;28.23;3.95;;;6.00;99.90;;;;;;5034299;28;20132;-75
2023/02/02 09:49:47;;;;;;;28.05;3.90;;;6.00;99.90;;;;;;5018712;28;20045;-74
2023/02/02 09:52:21;;;;;;;32.35;4.25;;;5.90;99.90;;;;;;5024604;28;20053;-74
2023/02/02 09:54:48;;;;;;;27.50;5.30;;;6.00;99.90;;;;;;5017561;28;20056;-75
2023/02/02 09:57:26;;;;;;;26.70;4.90;;;6.10;99.90;;;;;;5001924;28;20437;-75
2023/02/02 09:59:52;;;;;;;18.45;3.33;;;6.10;99.90;;;;;;5010658;28;20037;-75
2023/02/02 10:02:41;;;;;;;24.63;4.13;;;6.10;99.90;;;;;;5005429;28;20053;-76
2023/02/02 10:05:08;;;;;;;;;;;6.10;99.90;;;;;;5039113;28;20049;-75
2023/02/02 10:07:36;;;;;;;24.90;4.18;;;6.10;99.90;;;;;;5030015;28;19916;-75
2023/02/02 10:10:10;;;;;;;23.48;4.22;;;6.10;99.90;;;;;;5026227;28;20052;-75
2023/02/02 10:12:42;;;;;;;28.45;4.65;;;6.00;99.90;;;;;;5033882;28;20498;-75
2023/02/02 10:15:16;;;;;;;21.35;4.13;;;6.10;99.90;;;;;;5031153;28;20057;-76
2023/02/02 10:17:47;;;;;;;33.90;4.70;;;6.10;99.90;;;;;;5027659;28;20042;-77
2023/02/02 10:20:16;;;;;;;26.08;5.68;;;6.10;99.90;;;;;;5031852;28;20041;-77
2023/02/02 10:22:42;;;;;;;19.60;3.63;;;6.20;99.90;;;;;;5016614;28;20153;-77
2023/02/02 10:25:11;;;;;;;25.83;4.60;;;6.30;99.90;;;;;;5004174;28;20467;-76
2023/02/02 10:27:38;;;;;;;26.98;4.07;;;6.20;99.90;;;;;;5015942;28;20068;-77
2023/02/02 10:30:08;;;;;;;20.17;4.57;;;6.20;99.90;;;;;;5014275;28;20041;-75
2023/02/02 10:32:40;;;;;;;22.80;4.15;;;6.10;99.90;;;;;;5030602;28;20045;-76
2023/02/02 10:35:35;;;;;;;25.13;3.75;;;6.20;99.90;;;;;;5049476;28;20060;-77
2023/02/02 10:38:23;;;;;;;21.67;4.82;;;6.20;99.90;;;;;;5032893;28;20037;-75
2023/02/02 10:41:04;;;;;;;31.23;4.70;;;6.20;99.90;;;;;;5031479;28;20442;-74
2023/02/02 10:44:00;;;;;;;25.10;4.32;;;6.20;99.90;;;;;;5004216;28;20072;-76
2023/02/02 10:46:48;;;;;;;26.52;4.82;;;6.10;99.90;;;;;;5048477;28;20049;-76
2023/02/02 10:49:26;;;;;;;;;;;6.10;99.90;;;;;;4995729;28;20046;-76
2023/02/02 10:52:09;;;;;;;30.42;4.90;;;6.20;99.90;;;;;;5028209;28;19968;-75
2023/02/02 10:55:03;;;;;;;25.50;5.18;;;6.20;99.90;;;;;;5021377;28;20050;-76
2023/02/02 10:58:06;;;;;;;29.77;4.97;;;6.20;99.90;;;;;;5066026;28;20465;-75
2023/02/02 11:00:49;;;;;;;24.95;3.75;;;6.10;99.90;;;;;;5022146;28;20415;-76
2023/02/02 11:03:16;;;;;;;17.85;3.00;;;6.10;99.90;;;;;;5034015;28;20076;-76
2023/02/02 11:08:37;;;;;;;19.45;3.15;;;6.20;99.90;;;;;;5024053;28;20073;-76
2023/02/02 11:11:24;;;;;;;29.70;4.25;;;6.20;99.90;;;;;;5013554;28;20146;-76
2023/02/02 11:14:07;;;;;;;20.23;3.50;;;6.20;99.90;;;;;;5031594;28;20132;-76
2023/02/02 11:16:33;;;;;;;20.75;3.90;;;6.30;99.90;;;;;;5015653;28;20446;-76
2023/02/02 11:18:59;;;;;;;19.50;3.72;;;6.60;99.90;;;;;;5021598;28;20430;-77
2023/02/02 11:21:32;;;;;;;17.77;3.42;;;6.60;99.90;;;;;;4997343;28;20047;-75
2023/02/02 11:23:59;;;;;;;19.13;3.47;;;7.00;99.90;;;;;;5017866;28;20077;-77
2023/02/02 11:26:25;;;;;;;17.38;3.15;;;8.10;99.90;;;;;;5036980;28;20045;-76
2023/02/02 11:28:52;;;;;;;20.08;3.45;;;7.90;99.90;;;;;;5045646;28;20050;-76
2023/02/02 11:31:32;;;;;;;25.13;4.15;;;7.20;99.90;;;;;;5024347;28;20046;-78
2023/02/02 11:34:15;;;;;;;21.50;3.30;;;6.70;99.90;;;;;;5033078;28;20053;-77
2023/02/02 11:36:47;;;;;;;22.95;4.03;;;6.60;99.90;;;;;;5042415;28;20446;-77
2023/02/02 11:39:19;;;;;;;22.40;4.15;;;6.60;99.90;;;;;;5026424;28;20038;-77
2023/02/02 11:41:44;;;;;;;23.33;4.07;;;6.70;99.90;;;;;;5029928;28;20490;-77
2023/02/02 11:44:24;;;;;;;23.02;3.30;;;6.80;99.90;;;;;;5005464;28;20049;-76
2023/02/02 11:46:50;;;;;;;19.92;3.35;;;6.70;99.90;;;;;;4994418;28;20060;-77
2023/02/02 11:49:17;;;;;;;19.95;3.58;;;6.70;99.90;;;;;;5028152;28;20069;-77
2023/02/02 11:52:05;;;;;;;24.85;3.72;;;6.80;99.90;;;;;;4994551;28;20046;-77
2023/02/02 11:54:36;;;;;;;26.27;3.67;;;6.90;99.90;;;;;;5043382;28;20128;-76
2023/02/02 11:57:03;;;;;;;18.45;3.08;;;6.90;99.90;;;;;;5028196;28;20049;-75
2023/02/02 11:59:40;;;;;;;21.38;3.33;;;6.90;99.90;;;;;;5016126;28;20048;-75
2023/02/02 12:02:18;;;;;;;21.33;3.53;;;6.80;99.90;;;;;;5010809;28;20529;-76
2023/02/02 12:04:45;;;;;;;26.73;3.72;;;6.90;99.90;;;;;;5025843;28;20127;-76
2023/02/02 12:07:21;;;;;;;17.85;3.35;;;7.20;99.90;;;;;;5031585;28;20052;-75
2023/02/02 12:09:47;;;;;;;17.83;3.70;;;7.00;99.90;;;;;;5029307;28;20045;-76
2023/02/02 12:12:22;;;;;;;15.13;3.40;;;6.90;99.90;;;;;;5026003;28;20045;-76
2023/02/02 12:14:51;;;;;;;13.80;2.92;;;6.90;99.90;;;;;;5040249;28;20053;-76
2023/02/02 12:17:37;;;;;;;15.38;2.85;;;6.90;99.90;;;;;;5006157;28;20107;-76
2023/02/02 12:20:09;;;;;;;19.25;3.92;;;7.00;99.90;;;;;;5016495;28;20131;-74
2023/02/02 12:22:42;;;;;;;22.90;3.75;;;6.90;99.90;;;;;;5058881;28;20041;-77
2023/02/02 12:25:14;;;;;;;17.02;3.13;;;6.90;99.90;;;;;;5013491;28;20129;-77
2023/02/02 12:27:46;;;;;;;21.48;3.03;;;6.90;99.90;;;;;;5040728;28;20128;-77
2023/02/02 12:30:17;;;;;;;22.17;3.70;;;6.90;99.90;;;;;;5020574;28;20509;-76
2023/02/02 12:32:49;;;;;;;21.08;3.25;;;6.90;99.90;;;;;;5022265;28;20078;-77
2023/02/02 12:35:42;;;;;;;21.90;2.85;;;7.20;99.90;;;;;;5014417;28;20041;-76
2023/02/02 12:38:27;;;;;;;17.73;2.90;;;7.20;99.90;;;;;;5030274;28;20471;-77
2023/02/02 12:41:17;;;;;;;29.48;3.53;;;7.50;99.90;;;;;;4997140;28;20048;-76
2023/02/02 12:43:58;;;;;;;14.77;2.70;;;10.10;99.90;;;;;;5025319;28;20470;-77
2023/02/02 12:46:42;;;;;;;16.38;2.38;;;11.20;99.90;;;;;;5055785;28;20117;-77
2023/02/02 12:49:12;;;;;;;14.15;2.83;;;10.00;99.90;;;;;;5019361;28;20041;-75
2023/02/02 12:51:56;;;;;;;17.60;3.67;;;10.60;99.90;;;;;;5040968;28;20104;-77
2023/02/02 12:54:47;;;;;;;17.60;3.17;;;11.30;99.90;;;;;;5029812;28;20059;-77
2023/02/02 12:57:21;;;;;;;14.63;2.85;;;10.30;99.90;;;;;;5020542;28;20473;-77
2023/02/02 13:00:03;;;;;;;15.30;3.35;;;10.30;99.90;;;;;;4995735;28;20041;-76
2023/02/02 13:02:51;;;;;;;19.63;3.38;;;9.60;99.90;;;;;;5036081;28;20065;-76
2023/02/02 13:05:30;;;;;;;12.95;3.00;;;9.30;99.90;;;;;;5017470;28;20494;-77
2023/02/02 13:07:59;;;;;;;23.75;3.63;;;9.70;99.90;;;;;;5028052;28;20042;-75
2023/02/02 13:10:37;;;;;;;15.13;2.83;;;9.80;99.90;;;;;;5015772;28;20103;-76
2023/02/02 13:13:07;;;;;;;19.20;3.50;;;10.00;99.90;;;;;;5045876;28;20057;-76
2023/02/02 13:15:35;;;;;;;17.83;2.75;;;10.60;99.90;;;;;;5034173;28;20037;-75
2023/02/02 13:18:05;;;;;;;17.50;3.92;;;10.40;99.90;;;;;;5037822;28;20450;-76